Latest Coastal Weather Observations for Edithburgh

IDS60701

Issued at 7:21 am CST Friday 29 April 2016 (issued every 10 minutes, with the page automatically refreshed every 10 minutes)

About coastal observations | Map of coastal stations | Coastal observations for SA | Marine services | Other Formats
Station Details ID: 022046 Name: EDITHBURGH Lat: -35.11 Lon: 137.74 Height: 6.0 m
Data from the previous 72 hours. | See also: Recent months at Edithburgh
Date/Time
CST
Temp

°C
Wind Pressure Rain
since 9am
mm
Weather Cloud Vis
km
Sea
Height
m
Swell
Dir
 
Speed
knots
Gust
knots
hPa Trend Height
m
Period
s
Dir
29/07:00am 15.0 WSW 2 6 1012.1 - 1.4 - - - - - - -
29/06:30am 15.4 W 5 5 1012.1 - 1.0 - - - - - - -
29/06:00am 15.4 W 4 4 1012.1 - 1.0 - - - - - - -
29/05:30am 15.5 W 4 5 1012.0 - 1.0 - - - - - - -
29/05:00am 15.7 WNW 5 7 1012.0 - 1.0 - - - - - - -
29/04:30am 15.8 N 4 5 1011.8 - 1.0 - - - - - - -
29/04:00am 15.9 NW 4 5 1011.8 - 1.0 - - - - - - -
29/03:30am 16.5 WNW 5 7 1011.7 - 1.0 - - - - - - -
29/03:00am 17.2 W 8 13 1012.1 - 1.0 Rain - - - - - -
29/02:30am 17.7 WNW 8 12 1011.9 - 0.8 - - - - - - -
29/02:00am 18.6 WNW 12 15 1011.7 - 0.6 - - - - - - -
29/01:30am 20.5 NW 14 19 1011.6 - 0.4 - - - - - - -
29/01:00am 20.7 NNW 14 18 1010.7 - 0.4 - - - - - - -
29/12:30am 21.2 NNW 13 19 1010.9 - 0.4 - - - - - - -
29/12:00am 21.5 N 13 21 1010.0 - 0.4 Recent precip. - - - - - -
 
Date/Time
CST
Temp

°C
Wind Pressure Rain
since 9am
mm
Weather Cloud Vis
km
Sea
Height
m
Swell
Dir
 
Speed
knots
Gust
knots
hPa Trend Height
m
Period
s
Dir
28/11:30pm 21.7 N 17 24 1010.3 - 0.2 - - - - - - -
28/11:13pm 21.9 N 15 25 1010.3 - 0.2 - - - - - - -
28/11:00pm 19.8 NNE 10 15 1010.1 - 0.2 - - - - - - -
28/10:30pm 19.6 NNE 9 13 1010.0 - 0.2 - - - - - - -
28/10:00pm 19.9 NNE 7 11 1010.3 - 0.2 - - - - - - -
28/09:30pm 20.3 NNE 8 13 1010.6 - 0.2 - - - - - - -
28/09:00pm 20.1 NNE 7 12 1010.8 - 0.2 - - - - - - -
28/08:30pm 20.4 NE 10 14 1010.9 - 0.2 - - - - - - -
28/08:00pm 19.7 NE 8 11 1011.2 - 0.2 - - - - - - -
28/07:30pm 18.9 ENE 7 9 1011.1 - 0.2 - - - - - - -
28/07:00pm 18.6 ENE 7 8 1011.5 - 0.2 - - - - - - -
28/06:30pm 18.5 E 5 7 1011.5 - 0.2 - - - - - - -
28/06:00pm 18.0 E 3 4 1011.8 - 0.2 Recent precip. - - - - - -
28/05:30pm 17.9 ESE 6 8 1011.6 - 0.2 - - - - - - -
28/05:00pm 18.1 SE 7 9 1011.8 - 0.0 - - - - - - -
28/04:30pm 18.5 SE 8 11 1011.8 - 0.0 - - - - - - -
28/04:00pm 19.4 SSE 6 9 1012.4 - 0.0 - - - - - - -
28/03:30pm 18.9 SE 7 9 1012.7 - 0.0 - - - - - - -
28/03:00pm 18.5 SE 5 8 1013.1 - 0.0 - - - - - - -
28/02:30pm 18.6 SSE 6 7 1013.7 - 0.0 - - - - - - -
28/02:00pm 18.8 SE 8 11 1013.6 - 0.0 - - - - - - -
28/01:30pm 18.7 ESE 7 9 1014.4 - 0.0 - - - - - - -
28/01:00pm 19.3 ESE 8 11 1014.7 - 0.0 - - - - - - -
28/12:30pm 19.4 E 7 9 1015.4 - 0.0 - - - - - - -
28/12:00pm 19.3 ENE 8 10 1016.0 - 0.0 - - - - - - -
28/11:30am 19.3 ENE 5 7 1016.6 - 0.0 - - - - - - -
28/11:00am 18.7 E 3 5 1017.1 - 0.0 - - - - - - -
28/10:30am 18.5 NE 3 5 1017.5 - 0.0 - - - - - - -
28/10:00am 17.6 NE 2 3 1017.8 - 0.0 - - - - - - -
28/09:30am 17.4 ENE 5 7 1017.9 - 0.0 - - - - - - -
28/09:00am 17.6 ENE 5 7 1017.9 - 1.8 - - - - - - -
28/08:30am 16.7 ENE 2 3 1017.8 - 1.8 - - - - - - -
28/08:00am 15.9 NNE 1 3 1017.5 - 1.8 - - - - - - -
28/07:30am 15.5 N 2 4 1017.4 - 1.8 - - - - - - -
28/07:00am 15.4 NNW 3 4 1017.1 - 0.6 - - - - - - -
28/06:30am 14.6 CALM 0 0 1016.4 - 0.2 - - - - - - -
28/06:00am 14.6 WNW 2 3 1016.4 - 0.0 - - - - - - -
28/05:30am 14.3 WNW 2 3 1016.3 - 0.0 - - - - - - -
28/05:00am 14.2 CALM 0 1 1016.3 - 0.0 - - - - - - -
28/04:30am 15.4 SSW 2 3 1015.9 - 0.0 - - - - - - -
28/04:00am 15.5 WSW 2 3 1016.1 - 0.0 - - - - - - -
28/03:30am 15.7 WSW 3 4 1016.2 - 0.0 - - - - - - -
28/03:00am 16.2 WSW 5 7 1016.3 - 0.0 - - - - - - -
28/02:30am 16.2 SW 3 4 1016.2 - 0.0 - - - - - - -
28/02:00am 16.9 SW 4 5 1016.1 - 0.0 - - - - - - -
28/01:30am 17.1 SW 4 7 1015.9 - 0.0 - - - - - - -
28/01:00am 17.4 SW 7 10 1015.6 - 0.0 - - - - - - -
28/12:30am 18.1 WSW 6 9 1015.2 - 0.0 - - - - - - -
28/12:00am 18.3 WSW 6 10 1015.1 - 0.0 - - - - - - -
 
Date/Time
CST
Temp

°C
Wind Pressure Rain
since 9am
mm
Weather Cloud Vis
km
Sea
Height
m
Swell
Dir
 
Speed
knots
Gust
knots
hPa Trend Height
m
Period
s
Dir
27/11:30pm 18.5 SW 7 9 1014.9 - 0.0 - - - - - - -
27/11:00pm 18.6 SW 9 13 1014.8 - 0.0 - - - - - - -
27/10:30pm 18.6 SW 10 14 1014.4 - 0.0 - - - - - - -
27/10:00pm 18.6 WSW 10 15 1014.2 - 0.0 - - - - - - -
27/09:30pm 18.6 WSW 10 13 1014.0 - 0.0 - - - - - - -
27/09:00pm 18.9 WSW 7 10 1014.0 - 0.0 - - - - - - -
27/08:30pm 18.8 WSW 6 11 1013.4 - 0.0 - - - - - - -
27/08:00pm 18.9 WSW 6 8 1013.4 - 0.0 - - - - - - -
27/07:30pm 19.3 WSW 7 11 1013.3 - 0.0 - - - - - - -
27/07:00pm 18.8 WSW 5 8 1013.0 - 0.0 - - - - - - -
27/06:30pm 19.5 WSW 7 10 1012.7 - 0.0 - - - - - - -
27/06:00pm 20.2 WSW 5 7 1012.2 - 0.0 - - - - - - -
27/05:30pm 22.7 WNW 9 12 1011.5 - 0.0 - - - - - - -
27/05:00pm 23.5 W 11 14 1011.1 - 0.0 - - - - - - -
27/04:30pm 27.0 NW 12 16 1010.8 - 0.0 - - - - - - -
27/04:00pm 26.8 NNW 14 17 1010.8 - 0.0 - - - - - - -
27/03:30pm 26.2 NNW 15 20 1010.8 - 0.0 - - - - - - -
27/03:00pm 26.1 NNW 13 19 1010.7 - 0.0 - - - - - - -
27/02:30pm 25.8 NNW 15 20 1010.6 - 0.0 - - - - - - -
27/02:00pm 25.8 NNW 18 23 1010.5 - 0.0 - - - - - - -
27/01:30pm 25.9 NNW 21 27 1010.7 - 0.0 - - - - - - -
27/01:00pm 26.3 NNW 23 30 1010.7 - 0.0 - - - - - - -
27/12:30pm 27.8 NNW 24 32 1010.7 - 0.0 - - - - - - -
27/12:00pm 27.1 NNW 27 34 1011.0 - 0.0 - - - - - - -
27/11:36am 26.8 NNW 26 36 1011.6 - 0.0 - - - - - - -
27/11:30am 26.6 NNW 27 35 1011.6 - 0.0 - - - - - - -
27/11:00am 25.4 NNW 24 33 1011.9 - 0.0 - - - - - - -
27/10:30am 25.1 NNW 22 29 1012.2 - 0.0 - - - - - - -
27/10:00am 24.8 NNW 23 32 1012.4 - 0.0 - - - - - - -
27/09:30am 24.6 NW 18 23 1012.9 - 0.0 - - - - - - -
27/09:00am 24.4 NNW 18 24 1012.8 - 0.0 - - - - - - -
27/08:30am 24.1 N 14 22 1012.4 - 0.0 - - - - - - -
27/08:00am 21.9 NNE 8 15 1012.5 - 0.0 - - - - - - -
27/07:30am 19.4 NNE 8 12 1012.4 - 0.0 - - - - - - -
27/07:00am 19.7 NNE 8 13 1012.3 - 0.0 - - - - - - -
27/06:30am 19.2 NNE 9 14 1012.3 - 0.0 - - - - - - -
27/06:00am 19.1 NNE 10 14 1012.3 - 0.0 - - - - - - -
27/05:30am 19.2 NNE 10 14 1012.4 - 0.0 - - - - - - -
27/05:00am 19.9 N 11 16 1012.4 - 0.0 - - - - - - -
27/04:30am 20.3 N 11 17 1012.1 - 0.0 - - - - - - -
27/04:00am 20.9 N 12 17 1012.1 - 0.0 - - - - - - -
27/03:30am 19.5 NNE 9 14 1012.2 - 0.0 - - - - - - -
27/03:00am 19.2 NNE 9 14 1012.7 - 0.0 - - - - - - -
27/02:30am 19.1 NNE 9 14 1012.7 - 0.0 - - - - - - -
27/02:00am 19.1 NNE 8 13 1013.2 - 0.0 - - - - - - -
27/01:30am 19.1 NNE 9 14 1013.5 - 0.0 - - - - - - -
27/01:00am 19.4 NNE 9 12 1013.7 - 0.0 - - - - - - -
27/12:30am 19.7 NNE 9 15 1013.9 - 0.0 - - - - - - -
27/12:00am 19.6 NNE 9 14 1014.1 - 0.0 - - - - - - -
 
Date/Time
CST
Temp

°C
Wind Pressure Rain
since 9am
mm
Weather Cloud Vis
km
Sea
Height
m
Swell
Dir
 
Speed
knots
Gust
knots
hPa Trend Height
m
Period
s
Dir
26/11:30pm 20.5 NNE 12 18 1014.5 - 0.0 - - - - - - -
26/11:00pm 19.9 NNE 9 14 1014.7 - 0.0 - - - - - - -
26/10:30pm 19.9 NNE 9 15 1014.8 - 0.0 - - - - - - -
26/10:00pm 20.2 NNE 9 14 1014.9 - 0.0 - - - - - - -
26/09:30pm 20.0 NNE 8 13 1015.3 - 0.0 - - - - - - -
26/09:00pm 19.7 N 7 10 1015.4 - 0.0 - - - - - - -
26/08:30pm 18.3 N 8 9 1015.6 - 0.0 - - - - - - -
26/08:00pm 19.5 N 7 8 1016.0 - 0.0 - - - - - - -
26/07:30pm 21.9 N 7 9 1016.2 - 0.0 - - - - - - -
26/07:00pm 21.7 N 6 9 1016.3 - 0.0 - - - - - - -
26/06:30pm 22.9 NNE 6 9 1016.2 - 0.0 - - - - - - -
26/06:00pm 21.4 NNE 5 6 1016.2 - 0.0 - - - - - - -
26/05:30pm 21.4 NNE 6 9 1016.1 - 0.0 - - - - - - -
26/05:00pm 21.9 NNE 7 10 1016.2 - 0.0 - - - - - - -
26/04:30pm 22.3 NNE 6 10 1016.3 - 0.0 - - - - - - -
26/04:00pm 22.4 NNE 7 12 1016.4 - 0.0 - - - - - - -
26/03:30pm 23.3 NE 7 10 1016.5 - 0.0 - - - - - - -
26/03:00pm 23.8 NE 8 13 1016.7 - 0.0 - - - - - - -
26/02:30pm 24.0 NNE 7 11 1017.0 - 0.0 - - - - - - -
26/02:00pm 23.9 NNE 8 12 1017.5 - 0.0 - - - - - - -
26/01:30pm 24.0 NE 8 14 1017.8 - 0.0 - - - - - - -
26/01:00pm 22.5 NE 8 12 1018.5 - 0.0 - - - - - - -
26/12:30pm 22.5 NE 9 13 1019.1 - 0.0 - - - - - - -
26/12:00pm 22.1 NNE 8 13 1019.8 - 0.0 - - - - - - -
26/11:30am 21.9 NE 9 13 1020.2 - 0.0 - - - - - - -
26/11:00am 20.6 NNE 9 13 1020.8 - 0.0 - - - - - - -
26/10:30am 20.5 NNE 8 12 1021.1 - 0.0 - - - - - - -
26/10:00am 20.9 NNE 9 13 1021.5 - 0.0 - - - - - - -
26/09:30am 20.3 NNE 9 13 1021.7 - 0.0 - - - - - - -
26/09:00am 19.7 NNE 7 12 1021.8 - 0.0 - - - - - - -
26/08:30am 19.1 NNE 6 11 1021.9 - 0.0 - - - - - - -
26/08:00am 18.6 NNE 8 12 1021.8 - 0.0 - - - - - - -
26/07:30am 17.7 NNE 7 11 1021.6 - 0.0 - - - - - - -

Other Formats:

Comma delimited format used in spreadsheet applications
http://www.bom.gov.au/fwo/IDS60701/IDS60701.94809.axf

JavaScript Object Notation format (JSON) in row-major order
http://www.bom.gov.au/fwo/IDS60701/IDS60701.94809.json